sensor_id;sensor_type;location;lat;lon;timestamp;pressure;altitude;pressure_sealevel;temperature;humidity
39301;BME280;25019;42.626;23.380;2022-07-29T05:05:44;94532.50;;;27.65;55.48
39301;BME280;25019;42.626;23.380;2022-07-29T05:08:10;94578.50;;;27.83;54.92
39301;BME280;25019;42.626;23.380;2022-07-29T05:10:36;94521.19;;;27.47;55.27
39301;BME280;25019;42.626;23.380;2022-07-29T05:13:06;94536.38;;;27.32;55.72
39301;BME280;25019;42.626;23.380;2022-07-29T05:15:35;94585.28;;;27.73;56.05
39301;BME280;25019;42.626;23.380;2022-07-29T05:18:01;94587.75;;;27.30;56.73
39301;BME280;25019;42.626;23.380;2022-07-29T05:20:28;94566.88;;;27.21;56.72
39301;BME280;25019;42.626;23.380;2022-07-29T05:22:58;94535.94;;;26.98;56.97
39301;BME280;25019;42.626;23.380;2022-07-29T05:25:25;94591.03;;;27.51;57.02
39301;BME280;25019;42.626;23.380;2022-07-29T05:27:51;94589.25;;;27.75;56.17
39301;BME280;25019;42.626;23.380;2022-07-29T05:32:52;94573.47;;;27.85;54.71
39301;BME280;25019;42.626;23.380;2022-07-29T05:35:18;94555.28;;;28.08;54.27
39301;BME280;25019;42.626;23.380;2022-07-29T05:37:43;94582.66;;;28.28;53.86
39301;BME280;25019;42.626;23.380;2022-07-29T05:40:09;94590.06;;;28.47;52.99
39301;BME280;25019;42.626;23.380;2022-07-29T05:42:35;94579.44;;;28.62;51.81
39301;BME280;25019;42.626;23.380;2022-07-29T05:45:02;94567.16;;;29.14;50.95
39301;BME280;25019;42.626;23.380;2022-07-29T05:47:28;94585.38;;;29.50;49.95
39301;BME280;25019;42.626;23.380;2022-07-29T05:49:54;94580.09;;;29.64;48.89
39301;BME280;25019;42.626;23.380;2022-07-29T05:52:20;94551.44;;;29.54;48.15
39301;BME280;25019;42.626;23.380;2022-07-29T05:54:46;94598.69;;;30.01;48.06
39301;BME280;25019;42.626;23.380;2022-07-29T05:57:19;94540.50;;;29.81;47.66
39301;BME280;25019;42.626;23.380;2022-07-29T05:59:46;94577.25;;;30.07;47.64
39301;BME280;25019;42.626;23.380;2022-07-29T06:02:11;94518.13;;;29.75;48.19
39301;BME280;25019;42.626;23.380;2022-07-29T06:04:37;94592.03;;;30.29;47.46
39301;BME280;25019;42.626;23.380;2022-07-29T06:07:03;94584.56;;;30.26;47.11
39301;BME280;25019;42.626;23.380;2022-07-29T06:09:29;94548.50;;;30.21;46.81
39301;BME280;25019;42.626;23.380;2022-07-29T06:11:54;94589.09;;;30.76;46.05
39301;BME280;25019;42.626;23.380;2022-07-29T06:14:20;94593.94;;;30.86;45.88
39301;BME280;25019;42.626;23.380;2022-07-29T06:16:46;94595.34;;;31.11;45.58
39301;BME280;25019;42.626;23.380;2022-07-29T06:19:11;94502.38;;;30.57;45.50
39301;BME280;25019;42.626;23.380;2022-07-29T06:21:42;94596.34;;;31.29;45.20
39301;BME280;25019;42.626;23.380;2022-07-29T06:24:08;94536.59;;;30.40;44.03
39301;BME280;25019;42.626;23.380;2022-07-29T06:26:33;94587.00;;;30.35;45.12
39301;BME280;25019;42.626;23.380;2022-07-29T06:28:59;94575.34;;;30.11;45.78
39301;BME280;25019;42.626;23.380;2022-07-29T06:31:25;94604.50;;;30.27;46.26
39301;BME280;25019;42.626;23.380;2022-07-29T06:33:50;94591.78;;;29.61;48.68
39301;BME280;25019;42.626;23.380;2022-07-29T06:36:16;94532.75;;;28.70;49.13
39301;BME280;25019;42.626;23.380;2022-07-29T06:38:42;94580.47;;;27.66;53.35
39301;BME280;25019;42.626;23.380;2022-07-29T06:41:08;94593.19;;;27.14;55.22
39301;BME280;25019;42.626;23.380;2022-07-29T06:43:41;94568.63;;;26.69;57.65
39301;BME280;25019;42.626;23.380;2022-07-29T06:46:08;94606.81;;;26.57;59.76
39301;BME280;25019;42.626;23.380;2022-07-29T06:48:35;94600.91;;;26.14;59.92
39301;BME280;25019;42.626;23.380;2022-07-29T06:51:04;94546.09;;;25.50;61.30
39301;BME280;25019;42.626;23.380;2022-07-29T06:53:30;94544.13;;;25.38;61.67
39301;BME280;25019;42.626;23.380;2022-07-29T06:55:57;94593.81;;;25.26;63.41
39301;BME280;25019;42.626;23.380;2022-07-29T06:58:25;94593.84;;;24.80;65.86
39301;BME280;25019;42.626;23.380;2022-07-29T07:00:58;94545.47;;;24.39;67.36
39301;BME280;25019;42.626;23.380;2022-07-29T07:03:24;94595.50;;;24.72;67.77
39301;BME280;25019;42.626;23.380;2022-07-29T07:05:50;94605.56;;;24.50;66.46
39301;BME280;25019;42.626;23.380;2022-07-29T07:08:17;94596.38;;;24.21;67.59
39301;BME280;25019;42.626;23.380;2022-07-29T07:10:47;94573.41;;;24.40;68.04
39301;BME280;25019;42.626;23.380;2022-07-29T07:13:13;94516.66;;;24.14;67.41
39301;BME280;25019;42.626;23.380;2022-07-29T07:15:40;94586.00;;;24.45;67.73
39301;BME280;25019;42.626;23.380;2022-07-29T07:18:06;94534.59;;;24.06;68.46
39301;BME280;25019;42.626;23.380;2022-07-29T07:20:35;94597.69;;;24.36;67.88
39301;BME280;25019;42.626;23.380;2022-07-29T07:23:01;94589.50;;;24.03;67.50
39301;BME280;25019;42.626;23.380;2022-07-29T07:25:27;94595.91;;;24.19;69.64
39301;BME280;25019;42.626;23.380;2022-07-29T07:27:56;94597.09;;;24.09;70.12
39301;BME280;25019;42.626;23.380;2022-07-29T07:30:21;94526.41;;;23.85;68.79
39301;BME280;25019;42.626;23.380;2022-07-29T07:32:47;94589.38;;;24.42;67.34
39301;BME280;25019;42.626;23.380;2022-07-29T07:35:13;94587.69;;;24.49;65.28
39301;BME280;25019;42.626;23.380;2022-07-29T07:37:39;94583.97;;;24.54;64.47
39301;BME280;25019;42.626;23.380;2022-07-29T07:40:07;94584.38;;;24.65;64.69
39301;BME280;25019;42.626;23.380;2022-07-29T07:42:33;94568.16;;;24.56;63.44
39301;BME280;25019;42.626;23.380;2022-07-29T07:45:00;94575.78;;;24.63;64.45
39301;BME280;25019;42.626;23.380;2022-07-29T07:47:26;94531.56;;;24.41;63.52
39301;BME280;25019;42.626;23.380;2022-07-29T07:49:52;94578.09;;;24.73;63.39
39301;BME280;25019;42.626;23.380;2022-07-29T07:52:19;94575.72;;;24.72;63.78
39301;BME280;25019;42.626;23.380;2022-07-29T07:54:45;94495.31;;;24.24;62.80
39301;BME280;25019;42.626;23.380;2022-07-29T07:57:11;94527.53;;;24.47;62.83
39301;BME280;25019;42.626;23.380;2022-07-29T07:59:37;94561.69;;;24.82;63.33
39301;BME280;25019;42.626;23.380;2022-07-29T08:02:03;94561.41;;;24.96;62.37
39301;BME280;25019;42.626;23.380;2022-07-29T08:04:29;94513.66;;;24.61;61.68
39301;BME280;25019;42.626;23.380;2022-07-29T08:06:56;94557.44;;;24.93;62.08
39301;BME280;25019;42.626;23.380;2022-07-29T08:09:23;94551.75;;;24.86;60.25
39301;BME280;25019;42.626;23.380;2022-07-29T08:11:48;94563.34;;;24.95;60.19
39301;BME280;25019;42.626;23.380;2022-07-29T08:14:14;94576.34;;;25.02;59.92
39301;BME280;25019;42.626;23.380;2022-07-29T08:16:41;94565.06;;;25.12;60.04
39301;BME280;25019;42.626;23.380;2022-07-29T08:19:07;94504.69;;;24.48;59.88
39301;BME280;25019;42.626;23.380;2022-07-29T08:21:33;94497.81;;;24.51;58.00
39301;BME280;25019;42.626;23.380;2022-07-29T08:23:59;94573.78;;;25.18;56.85
39301;BME280;25019;42.626;23.380;2022-07-29T08:26:43;94571.88;;;25.31;57.00
39301;BME280;25019;42.626;23.380;2022-07-29T08:29:09;94506.41;;;24.87;56.15
39301;BME280;25019;42.626;23.380;2022-07-29T08:31:36;94536.22;;;25.33;56.01
39301;BME280;25019;42.626;23.380;2022-07-29T08:34:03;94548.69;;;25.58;56.15
39301;BME280;25019;42.626;23.380;2022-07-29T08:36:29;94566.13;;;25.70;54.74
39301;BME280;25019;42.626;23.380;2022-07-29T08:38:55;94535.22;;;25.50;54.91
39301;BME280;25019;42.626;23.380;2022-07-29T08:41:22;94561.50;;;25.70;54.97
39301;BME280;25019;42.626;23.380;2022-07-29T08:43:48;94560.91;;;25.90;54.54
39301;BME280;25019;42.626;23.380;2022-07-29T08:46:15;94565.53;;;26.01;53.00
39301;BME280;25019;42.626;23.380;2022-07-29T08:48:41;94516.72;;;25.80;52.78
39301;BME280;25019;42.626;23.380;2022-07-29T08:51:07;94491.47;;;25.67;52.96
39301;BME280;25019;42.626;23.380;2022-07-29T08:53:34;94566.09;;;26.20;50.80
39301;BME280;25019;42.626;23.380;2022-07-29T08:56:00;94557.56;;;26.21;49.89
39301;BME280;25019;42.626;23.380;2022-07-29T08:58:27;94561.88;;;26.35;50.15
39301;BME280;25019;42.626;23.380;2022-07-29T09:00:57;94471.31;;;25.97;50.51
39301;BME280;25019;42.626;23.380;2022-07-29T09:03:24;94567.91;;;26.85;52.13
39301;BME280;25019;42.626;23.380;2022-07-29T09:05:50;94549.22;;;27.15;50.71
39301;BME280;25019;42.626;23.380;2022-07-29T09:08:17;94521.59;;;27.33;49.45
39301;BME280;25019;42.626;23.380;2022-07-29T09:10:44;94556.84;;;27.90;48.51
39301;BME280;25019;42.626;23.380;2022-07-29T09:13:10;94474.59;;;27.72;46.73
39301;BME280;25019;42.626;23.380;2022-07-29T09:15:35;94543.34;;;28.52;47.57
39301;BME280;25019;42.626;23.380;2022-07-29T09:18:01;94545.94;;;28.84;46.70
39301;BME280;25019;42.626;23.380;2022-07-29T09:20:27;94531.00;;;29.02;45.44
39301;BME280;25019;42.626;23.380;2022-07-29T09:23:13;94471.88;;;28.50;45.30
39301;BME280;25019;42.626;23.380;2022-07-29T09:25:40;94541.94;;;29.25;45.15
39301;BME280;25019;42.626;23.380;2022-07-29T09:28:12;94537.63;;;29.24;45.28
39301;BME280;25019;42.626;23.380;2022-07-29T09:30:56;94543.56;;;29.06;44.57
39301;BME280;25019;42.626;23.380;2022-07-29T09:33:25;94490.59;;;28.91;44.77
39301;BME280;25019;42.626;23.380;2022-07-29T09:36:04;94523.88;;;29.20;44.02
39301;BME280;25019;42.626;23.380;2022-07-29T09:38:31;94470.00;;;28.97;45.05
39301;BME280;25019;42.626;23.380;2022-07-29T09:40:58;94539.69;;;29.07;45.72
39301;BME280;25019;42.626;23.380;2022-07-29T09:43:24;94539.88;;;28.95;45.23
39301;BME280;25019;42.626;23.380;2022-07-29T09:45:50;94505.66;;;28.62;45.90
39301;BME280;25019;42.626;23.380;2022-07-29T09:48:20;94532.81;;;28.94;47.33
39301;BME280;25019;42.626;23.380;2022-07-29T09:50:47;94532.38;;;29.15;46.21
39301;BME280;25019;42.626;23.380;2022-07-29T09:53:33;94535.38;;;29.29;45.64
39301;BME280;25019;42.626;23.380;2022-07-29T09:56:00;94464.78;;;29.12;44.67
39301;BME280;25019;42.626;23.380;2022-07-29T09:58:25;94524.59;;;29.64;44.37
39301;BME280;25019;42.626;23.380;2022-07-29T10:00:53;94521.06;;;29.90;43.20
39301;BME280;25019;42.626;23.380;2022-07-29T10:03:20;94516.00;;;30.19;42.75
39301;BME280;25019;42.626;23.380;2022-07-29T10:06:11;94476.06;;;30.18;41.56
39301;BME280;25019;42.626;23.380;2022-07-29T10:08:38;94500.97;;;30.40;41.80
39301;BME280;25019;42.626;23.380;2022-07-29T10:11:15;94510.31;;;30.66;42.13
39301;BME280;25019;42.626;23.380;2022-07-29T10:13:43;94489.78;;;30.52;41.77
39301;BME280;25019;42.626;23.380;2022-07-29T10:16:09;94471.00;;;30.54;41.13
39301;BME280;25019;42.626;23.380;2022-07-29T10:18:38;94496.00;;;30.83;40.44
39301;BME280;25019;42.626;23.380;2022-07-29T10:21:04;94458.44;;;30.49;40.54
39301;BME280;25019;42.626;23.380;2022-07-29T10:23:30;94485.38;;;30.44;40.58
39301;BME280;25019;42.626;23.380;2022-07-29T10:25:57;94487.69;;;30.42;40.50
39301;BME280;25019;42.626;23.380;2022-07-29T10:28:22;94463.75;;;30.35;41.00
39301;BME280;25019;42.626;23.380;2022-07-29T10:31:00;94432.25;;;30.18;41.45
39301;BME280;25019;42.626;23.380;2022-07-29T10:36:15;94482.50;;;30.33;40.43
39301;BME280;25019;42.626;23.380;2022-07-29T10:39:00;94465.06;;;30.11;40.61
39301;BME280;25019;42.626;23.380;2022-07-29T10:41:34;94469.19;;;29.97;41.23
39301;BME280;25019;42.626;23.380;2022-07-29T10:44:08;94476.88;;;30.18;40.73
39301;BME280;25019;42.626;23.380;2022-07-29T10:46:36;94402.88;;;29.81;40.31
39301;BME280;25019;42.626;23.380;2022-07-29T10:49:13;94458.88;;;30.17;39.66
39301;BME280;25019;42.626;23.380;2022-07-29T10:54:19;94465.31;;;30.32;39.73
39301;BME280;25019;42.626;23.380;2022-07-29T10:56:45;94461.75;;;30.32;40.38
39301;BME280;25019;42.626;23.380;2022-07-29T11:01:46;94464.78;;;30.23;39.62
39301;BME280;25019;42.626;23.380;2022-07-29T11:04:12;94425.38;;;29.97;39.56
39301;BME280;25019;42.626;23.380;2022-07-29T11:09:28;94470.25;;;30.19;39.90
39301;BME280;25019;42.626;23.380;2022-07-29T11:11:57;94411.81;;;29.78;39.71
39301;BME280;25019;42.626;23.380;2022-07-29T11:14:54;94455.38;;;30.21;39.61
39301;BME280;25019;42.626;23.380;2022-07-29T11:17:21;94454.25;;;30.25;39.75
39301;BME280;25019;42.626;23.380;2022-07-29T11:19:48;94336.88;;;29.55;38.36
39301;BME280;25019;42.626;23.380;2022-07-29T11:22:31;94454.03;;;30.41;38.48
39301;BME280;25019;42.626;23.380;2022-07-29T11:25:17;94381.94;;;29.96;39.01
39301;BME280;25019;42.626;23.380;2022-07-29T11:27:46;94442.69;;;30.43;38.30
39301;BME280;25019;42.626;23.380;2022-07-29T11:30:12;94394.25;;;30.13;38.34
39301;BME280;25019;42.626;23.380;2022-07-29T11:32:40;94435.84;;;30.56;38.06
39301;BME280;25019;42.626;23.380;2022-07-29T11:37:38;94380.19;;;30.11;37.75
39301;BME280;25019;42.626;23.380;2022-07-29T11:45:03;94429.78;;;30.81;36.80
39301;BME280;25019;42.626;23.380;2022-07-29T11:47:34;94433.03;;;30.90;36.75
39301;BME280;25019;42.626;23.380;2022-07-29T11:50:03;94355.22;;;30.57;37.01
39301;BME280;25019;42.626;23.380;2022-07-29T11:52:36;94428.56;;;31.20;35.94
39301;BME280;25019;42.626;23.380;2022-07-29T11:55:05;94406.53;;;31.09;35.77
39301;BME280;25019;42.626;23.380;2022-07-29T11:57:33;94425.47;;;31.25;35.77
39301;BME280;25019;42.626;23.380;2022-07-29T12:00:00;94359.28;;;30.78;35.81
39301;BME280;25019;42.626;23.380;2022-07-29T12:02:38;94400.22;;;31.05;35.51
39301;BME280;25019;42.626;23.380;2022-07-29T12:05:04;94419.06;;;31.06;35.79
39301;BME280;25019;42.626;23.380;2022-07-29T12:07:33;94384.84;;;30.93;36.37
39301;BME280;25019;42.626;23.380;2022-07-29T12:10:00;94396.22;;;30.95;35.37
39301;BME280;25019;42.626;23.380;2022-07-29T12:12:26;94423.00;;;31.13;35.14
39301;BME280;25019;42.626;23.380;2022-07-29T12:14:52;94423.09;;;31.23;36.25
39301;BME280;25019;42.626;23.380;2022-07-29T12:19:53;94416.06;;;31.26;34.90
39301;BME280;25019;42.626;23.380;2022-07-29T12:22:36;94345.16;;;30.76;35.17
39301;BME280;25019;42.626;23.380;2022-07-29T12:25:08;94425.63;;;30.94;35.39
39301;BME280;25019;42.626;23.380;2022-07-29T12:27:35;94398.53;;;30.89;34.76
39301;BME280;25019;42.626;23.380;2022-07-29T12:30:09;94388.03;;;30.99;34.94
39301;BME280;25019;42.626;23.380;2022-07-29T12:32:38;94409.41;;;31.27;34.85
39301;BME280;25019;42.626;23.380;2022-07-29T12:35:06;94414.50;;;31.29;34.92
39301;BME280;25019;42.626;23.380;2022-07-29T12:37:36;94396.88;;;31.30;34.57
39301;BME280;25019;42.626;23.380;2022-07-29T12:40:05;94414.16;;;31.34;34.51
39301;BME280;25019;42.626;23.380;2022-07-29T12:42:31;94389.81;;;31.25;34.89
39301;BME280;25019;42.626;23.380;2022-07-29T12:44:57;94409.50;;;31.42;34.45
39301;BME280;25019;42.626;23.380;2022-07-29T12:47:23;94387.94;;;31.40;34.56
39301;BME280;25019;42.626;23.380;2022-07-29T12:49:50;94315.56;;;31.00;34.40
39301;BME280;25019;42.626;23.380;2022-07-29T12:52:27;94395.47;;;31.58;34.83
39301;BME280;25019;42.626;23.380;2022-07-29T12:54:53;94395.47;;;31.54;34.79
39301;BME280;25019;42.626;23.380;2022-07-29T12:57:19;94320.03;;;31.19;34.92
39301;BME280;25019;42.626;23.380;2022-07-29T12:59:45;94344.41;;;31.31;34.64
39301;BME280;25019;42.626;23.380;2022-07-29T13:02:22;94329.47;;;31.29;34.83
39301;BME280;25019;42.626;23.380;2022-07-29T13:04:58;94387.69;;;31.67;34.38
39301;BME280;25019;42.626;23.380;2022-07-29T13:07:29;94373.97;;;31.67;34.85
39301;BME280;25019;42.626;23.380;2022-07-29T13:10:18;94382.97;;;31.60;34.91
39301;BME280;25019;42.626;23.380;2022-07-29T13:15:38;94322.47;;;31.31;34.60
39301;BME280;25019;42.626;23.380;2022-07-29T13:18:06;94371.34;;;31.92;34.46
39301;BME280;25019;42.626;23.380;2022-07-29T13:20:51;94369.41;;;31.93;34.82
39301;BME280;25019;42.626;23.380;2022-07-29T13:23:16;94345.03;;;31.77;33.84
39301;BME280;25019;42.626;23.380;2022-07-29T13:25:42;94370.97;;;31.90;33.80
39301;BME280;25019;42.626;23.380;2022-07-29T13:28:07;94324.91;;;31.54;33.33
39301;BME280;25019;42.626;23.380;2022-07-29T13:30:33;94367.00;;;31.88;33.16
39301;BME280;25019;42.626;23.380;2022-07-29T13:32:58;94369.78;;;31.95;33.66
39301;BME280;25019;42.626;23.380;2022-07-29T13:35:24;94369.44;;;32.00;33.55
39301;BME280;25019;42.626;23.380;2022-07-29T13:37:50;94275.06;;;31.38;34.07
39301;BME280;25019;42.626;23.380;2022-07-29T13:40:15;94338.28;;;31.71;33.72
39301;BME280;25019;42.626;23.380;2022-07-29T13:42:41;94355.66;;;31.89;33.68
39301;BME280;25019;42.626;23.380;2022-07-29T13:45:08;94355.63;;;31.82;33.43
39301;BME280;25019;42.626;23.380;2022-07-29T13:47:34;94302.13;;;31.43;33.70
39301;BME280;25019;42.626;23.380;2022-07-29T13:50:01;94354.44;;;31.72;33.63
39301;BME280;25019;42.626;23.380;2022-07-29T13:52:26;94334.75;;;31.59;34.36
39301;BME280;25019;42.626;23.380;2022-07-29T13:54:52;94363.06;;;31.78;34.84
39301;BME280;25019;42.626;23.380;2022-07-29T13:57:18;94361.09;;;31.75;33.75
39301;BME280;25019;42.626;23.380;2022-07-29T13:59:44;94348.06;;;31.57;34.03
39301;BME280;25019;42.626;23.380;2022-07-29T14:02:10;94355.53;;;31.64;34.01
39301;BME280;25019;42.626;23.380;2022-07-29T14:04:36;94363.00;;;31.71;33.99
39301;BME280;25019;42.626;23.380;2022-07-29T14:07:02;94325.66;;;31.48;34.29
39301;BME280;25019;42.626;23.380;2022-07-29T14:09:28;94359.84;;;31.68;34.51
39301;BME280;25019;42.626;23.380;2022-07-29T14:11:53;94357.47;;;31.60;34.79
39301;BME280;25019;42.626;23.380;2022-07-29T14:14:20;94359.44;;;31.63;34.79
39301;BME280;25019;42.626;23.380;2022-07-29T14:16:45;94285.53;;;31.18;34.86
39301;BME280;25019;42.626;23.380;2022-07-29T14:19:11;94355.53;;;31.60;34.45
39301;BME280;25019;42.626;23.380;2022-07-29T14:21:37;94346.53;;;31.71;34.12
39301;BME280;25019;42.626;23.380;2022-07-29T14:24:04;94360.31;;;31.78;33.86
39301;BME280;25019;42.626;23.380;2022-07-29T14:26:30;94349.75;;;31.76;33.55
39301;BME280;25019;42.626;23.380;2022-07-29T14:28:55;94337.50;;;31.66;33.83
39301;BME280;25019;42.626;23.380;2022-07-29T14:31:21;94347.00;;;31.80;33.88
39301;BME280;25019;42.626;23.380;2022-07-29T14:33:46;94354.09;;;31.95;33.90
39301;BME280;25019;42.626;23.380;2022-07-29T14:36:12;94350.19;;;31.89;33.79
39301;BME280;25019;42.626;23.380;2022-07-29T14:38:38;94326.59;;;31.77;33.36
39301;BME280;25019;42.626;23.380;2022-07-29T14:41:04;94280.59;;;31.52;33.37
39301;BME280;25019;42.626;23.380;2022-07-29T14:43:29;94279.38;;;31.43;33.27
39301;BME280;25019;42.626;23.380;2022-07-29T14:45:55;94279.41;;;31.46;33.36
39301;BME280;25019;42.626;23.380;2022-07-29T14:48:21;94338.75;;;31.76;32.96
39301;BME280;25019;42.626;23.380;2022-07-29T14:50:47;94337.19;;;31.75;32.90
39301;BME280;25019;42.626;23.380;2022-07-29T14:53:12;94349.34;;;31.78;32.83
39301;BME280;25019;42.626;23.380;2022-07-29T14:55:39;94322.16;;;31.47;32.91
39301;BME280;25019;42.626;23.380;2022-07-29T14:58:04;94305.94;;;31.20;32.85
39301;BME280;25019;42.626;23.380;2022-07-29T15:00:30;94328.66;;;31.24;32.73
39301;BME280;25019;42.626;23.380;2022-07-29T15:02:58;94298.34;;;30.99;33.32
39301;BME280;25019;42.626;23.380;2022-07-29T15:05:24;94316.47;;;31.15;33.13
39301;BME280;25019;42.626;23.380;2022-07-29T15:07:50;94324.41;;;31.31;33.08
39301;BME280;25019;42.626;23.380;2022-07-29T15:10:16;94290.47;;;30.94;33.99
39301;BME280;25019;42.626;23.380;2022-07-29T15:12:42;94345.22;;;31.35;33.57
39301;BME280;25019;42.626;23.380;2022-07-29T15:15:07;94268.09;;;30.85;33.68
39301;BME280;25019;42.626;23.380;2022-07-29T15:17:34;94324.00;;;31.25;32.88
39301;BME280;25019;42.626;23.380;2022-07-29T15:19:59;94285.81;;;30.98;33.40
39301;BME280;25019;42.626;23.380;2022-07-29T15:22:25;94243.28;;;30.59;33.53
39301;BME280;25019;42.626;23.380;2022-07-29T15:24:51;94333.34;;;31.17;33.16
39301;BME280;25019;42.626;23.380;2022-07-29T15:27:17;94337.28;;;31.19;34.07
39301;BME280;25019;42.626;23.380;2022-07-29T15:29:43;94314.38;;;30.93;33.97
39301;BME280;25019;42.626;23.380;2022-07-29T15:32:09;94328.94;;;31.05;33.92
39301;BME280;25019;42.626;23.380;2022-07-29T15:34:35;94248.66;;;30.48;34.24
39301;BME280;25019;42.626;23.380;2022-07-29T15:37:01;94317.47;;;30.92;34.56
39301;BME280;25019;42.626;23.380;2022-07-29T15:39:27;94291.53;;;30.75;34.78
39301;BME280;25019;42.626;23.380;2022-07-29T15:41:52;94314.31;;;30.86;34.07
39301;BME280;25019;42.626;23.380;2022-07-29T15:44:19;94312.69;;;30.74;34.37
39301;BME280;25019;42.626;23.380;2022-07-29T15:46:44;94330.38;;;30.88;34.44
39301;BME280;25019;42.626;23.380;2022-07-29T15:49:32;94340.22;;;30.92;34.49
39301;BME280;25019;42.626;23.380;2022-07-29T15:51:59;94334.63;;;30.78;34.52
39301;BME280;25019;42.626;23.380;2022-07-29T15:54:26;94343.16;;;30.69;34.75
39301;BME280;25019;42.626;23.380;2022-07-29T15:56:53;94333.94;;;30.47;35.06
39301;BME280;25019;42.626;23.380;2022-07-29T15:59:19;94315.03;;;30.31;35.62
39301;BME280;25019;42.626;23.380;2022-07-29T16:01:45;94324.38;;;30.26;35.89
39301;BME280;25019;42.626;23.380;2022-07-29T16:04:10;94333.03;;;30.32;36.56
39301;BME280;25019;42.626;23.380;2022-07-29T16:06:36;94315.50;;;29.99;37.23
39301;BME280;25019;42.626;23.380;2022-07-29T16:09:04;94331.97;;;30.02;37.96
39301;BME280;25019;42.626;23.380;2022-07-29T16:11:30;94300.72;;;29.73;38.61
39301;BME280;25019;42.626;23.380;2022-07-29T16:13:55;94330.38;;;29.67;39.29
39301;BME280;25019;42.626;23.380;2022-07-29T16:16:21;94318.88;;;29.24;39.87
39301;BME280;25019;42.626;23.380;2022-07-29T16:18:46;94250.88;;;28.65;40.35
39301;BME280;25019;42.626;23.380;2022-07-29T16:21:12;94333.78;;;28.99;40.48
39301;BME280;25019;42.626;23.380;2022-07-29T16:23:39;94267.63;;;28.36;40.95
39301;BME280;25019;42.626;23.380;2022-07-29T16:26:04;94299.66;;;28.39;40.79
39301;BME280;25019;42.626;23.380;2022-07-29T16:28:30;94328.06;;;28.35;40.72
39301;BME280;25019;42.626;23.380;2022-07-29T16:30:56;94286.88;;;28.01;41.36
39301;BME280;25019;42.626;23.380;2022-07-29T16:33:22;94345.91;;;28.29;41.35
39301;BME280;25019;42.626;23.380;2022-07-29T16:35:51;94317.19;;;27.95;41.44
39301;BME280;25019;42.626;23.380;2022-07-29T16:38:17;94349.41;;;28.09;41.93
39301;BME280;25019;42.626;23.380;2022-07-29T16:40:44;94338.31;;;27.99;42.08
39301;BME280;25019;42.626;23.380;2022-07-29T16:43:09;94349.09;;;27.91;42.49
39301;BME280;25019;42.626;23.380;2022-07-29T16:45:35;94332.88;;;27.79;42.79
39301;BME280;25019;42.626;23.380;2022-07-29T16:48:02;94341.78;;;27.76;43.14
39301;BME280;25019;42.626;23.380;2022-07-29T16:50:28;94323.63;;;27.64;42.55
39301;BME280;25019;42.626;23.380;2022-07-29T16:52:55;94338.47;;;27.66;42.94
39301;BME280;25019;42.626;23.380;2022-07-29T16:55:21;94299.69;;;27.37;43.08
39301;BME280;25019;42.626;23.380;2022-07-29T16:57:46;94344.97;;;27.58;42.80
39301;BME280;25019;42.626;23.380;2022-07-29T17:00:14;94337.56;;;27.59;43.10
39301;BME280;25019;42.626;23.380;2022-07-29T17:02:40;94341.66;;;27.49;42.12
39301;BME280;25019;42.626;23.380;2022-07-29T17:05:06;94326.09;;;27.33;42.65
39301;BME280;25019;42.626;23.380;2022-07-29T17:07:32;94346.66;;;27.47;42.16
39301;BME280;25019;42.626;23.380;2022-07-29T17:09:58;94338.94;;;27.33;42.03
39301;BME280;25019;42.626;23.380;2022-07-29T17:12:24;94301.16;;;26.96;42.29
39301;BME280;25019;42.626;23.380;2022-07-29T17:32:48;94313.31;;;26.66;46.01
39301;BME280;25019;42.626;23.380;2022-07-29T17:35:14;94287.06;;;26.42;46.42
39301;BME280;25019;42.626;23.380;2022-07-29T17:37:58;94351.69;;;26.77;46.58
39301;BME280;25019;42.626;23.380;2022-07-29T17:40:24;94355.56;;;26.76;46.38
39301;BME280;25019;42.626;23.380;2022-07-29T17:42:50;94358.66;;;26.74;47.08
39301;BME280;25019;42.626;23.380;2022-07-29T17:45:15;94345.66;;;26.52;46.59
39301;BME280;25019;42.626;23.380;2022-07-29T17:47:41;94360.84;;;26.53;46.67
39301;BME280;25019;42.626;23.380;2022-07-29T17:50:07;94293.81;;;26.00;46.23
39301;BME280;25019;42.626;23.380;2022-07-29T17:52:32;94306.19;;;25.97;46.39
39301;BME280;25019;42.626;23.380;2022-07-29T17:54:58;94365.69;;;26.27;45.50
39301;BME280;25019;42.626;23.380;2022-07-29T17:57:24;94362.75;;;26.20;45.61
39301;BME280;25019;42.626;23.380;2022-07-29T17:59:49;94338.47;;;25.99;45.58
39301;BME280;25019;42.626;23.380;2022-07-29T18:02:15;94356.50;;;26.03;45.13
39301;BME280;25019;42.626;23.380;2022-07-29T18:04:42;94373.59;;;26.04;45.39
39301;BME280;25019;42.626;23.380;2022-07-29T18:07:07;94361.19;;;25.91;45.24
39301;BME280;25019;42.626;23.380;2022-07-29T18:09:33;94372.41;;;25.89;45.31
39301;BME280;25019;42.626;23.380;2022-07-29T18:11:58;94384.78;;;25.86;44.99
39301;BME280;25019;42.626;23.380;2022-07-29T18:14:24;94380.38;;;25.82;45.66
39301;BME280;25019;42.626;23.380;2022-07-29T18:16:49;94337.91;;;25.49;45.18
39301;BME280;25019;42.626;23.380;2022-07-29T18:19:15;94381.56;;;25.68;45.33
39301;BME280;25019;42.626;23.380;2022-07-29T18:21:40;94379.97;;;25.67;44.89
39301;BME280;25019;42.626;23.380;2022-07-29T18:24:06;94380.91;;;25.59;44.98
39301;BME280;25019;42.626;23.380;2022-07-29T18:26:32;94284.16;;;24.89;44.88
39301;BME280;25019;42.626;23.380;2022-07-29T18:28:58;94362.72;;;25.35;44.57
39301;BME280;25019;42.626;23.380;2022-07-29T18:31:23;94373.94;;;25.33;44.59
39301;BME280;25019;42.626;23.380;2022-07-29T18:33:49;94389.81;;;25.43;44.44
39301;BME280;25019;42.626;23.380;2022-07-29T18:36:14;94384.91;;;25.37;45.18
39301;BME280;25019;42.626;23.380;2022-07-29T18:38:40;94393.50;;;25.39;44.99
39301;BME280;25019;42.626;23.380;2022-07-29T18:41:06;94389.91;;;25.35;45.37